sensor_id;sensor_type;location;lat;lon;timestamp;pressure;altitude;pressure_sealevel;temperature;humidity
12913;BME280;6524;51.368;11.984;2022-10-23T04:01:54;100424.94;;;12.16;100.00
12913;BME280;6524;51.368;11.984;2022-10-23T04:06:54;100432.44;;;12.02;100.00
12913;BME280;6524;51.368;11.984;2022-10-23T04:11:55;100430.75;;;12.01;100.00
12913;BME280;6524;51.368;11.984;2022-10-23T04:16:55;100421.94;;;12.03;100.00
12913;BME280;6524;51.368;11.984;2022-10-23T04:21:55;100425.72;;;12.18;100.00
12913;BME280;6524;51.368;11.984;2022-10-23T04:26:56;100429.13;;;12.20;100.00
12913;BME280;6524;51.368;11.984;2022-10-23T04:31:56;100427.84;;;12.31;100.00
12913;BME280;6524;51.368;11.984;2022-10-23T04:36:57;100405.72;;;12.39;100.00
12913;BME280;6524;51.368;11.984;2022-10-23T04:41:57;100402.19;;;12.40;100.00
12913;BME280;6524;51.368;11.984;2022-10-23T04:46:57;100404.22;;;12.34;100.00
12913;BME280;6524;51.368;11.984;2022-10-23T04:51:58;100405.84;;;12.36;100.00
12913;BME280;6524;51.368;11.984;2022-10-23T04:56:58;100420.81;;;12.33;100.00
12913;BME280;6524;51.368;11.984;2022-10-23T05:01:58;100417.28;;;12.34;100.00
12913;BME280;6524;51.368;11.984;2022-10-23T05:06:58;100406.22;;;12.27;100.00
12913;BME280;6524;51.368;11.984;2022-10-23T05:11:59;100398.97;;;12.34;100.00
12913;BME280;6524;51.368;11.984;2022-10-23T05:17:02;100381.72;;;12.30;100.00
12913;BME280;6524;51.368;11.984;2022-10-23T05:22:04;100393.69;;;12.13;100.00
12913;BME280;6524;51.368;11.984;2022-10-23T05:27:04;100400.81;;;12.10;100.00
12913;BME280;6524;51.368;11.984;2022-10-23T05:32:06;100400.16;;;12.03;100.00
12913;BME280;6524;51.368;11.984;2022-10-23T05:37:11;100380.00;;;11.85;100.00
12913;BME280;6524;51.368;11.984;2022-10-23T05:42:13;100385.28;;;11.81;100.00
12913;BME280;6524;51.368;11.984;2022-10-23T05:47:13;100380.34;;;11.74;100.00
12913;BME280;6524;51.368;11.984;2022-10-23T05:52:13;100380.28;;;11.99;100.00
12913;BME280;6524;51.368;11.984;2022-10-23T05:57:14;100382.75;;;12.25;100.00
12913;BME280;6524;51.368;11.984;2022-10-23T06:02:14;100382.94;;;12.43;100.00
12913;BME280;6524;51.368;11.984;2022-10-23T06:07:14;100387.00;;;12.50;100.00
12913;BME280;6524;51.368;11.984;2022-10-23T06:12:15;100388.09;;;12.66;100.00
12913;BME280;6524;51.368;11.984;2022-10-23T06:17:15;100387.72;;;12.76;100.00
12913;BME280;6524;51.368;11.984;2022-10-23T06:22:15;100387.97;;;12.69;100.00
12913;BME280;6524;51.368;11.984;2022-10-23T06:27:16;100400.78;;;12.96;100.00
12913;BME280;6524;51.368;11.984;2022-10-23T06:32:16;100398.97;;;12.98;100.00
12913;BME280;6524;51.368;11.984;2022-10-23T06:37:17;100401.72;;;13.15;100.00
12913;BME280;6524;51.368;11.984;2022-10-23T06:42:17;100403.31;;;13.19;100.00
12913;BME280;6524;51.368;11.984;2022-10-23T06:47:18;100404.88;;;13.24;100.00
12913;BME280;6524;51.368;11.984;2022-10-23T06:52:18;100405.34;;;13.33;100.00
12913;BME280;6524;51.368;11.984;2022-10-23T06:57:18;100405.78;;;13.43;100.00
12913;BME280;6524;51.368;11.984;2022-10-23T07:02:19;100401.44;;;13.62;100.00
12913;BME280;6524;51.368;11.984;2022-10-23T07:07:19;100395.78;;;13.72;100.00
12913;BME280;6524;51.368;11.984;2022-10-23T07:12:19;100394.25;;;13.86;100.00
12913;BME280;6524;51.368;11.984;2022-10-23T07:17:20;100399.19;;;14.11;100.00
12913;BME280;6524;51.368;11.984;2022-10-23T07:22:20;100394.88;;;14.47;98.35
12913;BME280;6524;51.368;11.984;2022-10-23T07:27:20;100398.34;;;14.66;96.05
12913;BME280;6524;51.368;11.984;2022-10-23T07:32:21;100411.69;;;14.79;95.81
12913;BME280;6524;51.368;11.984;2022-10-23T07:37:23;100413.34;;;14.99;94.88
12913;BME280;6524;51.368;11.984;2022-10-23T07:42:23;100405.06;;;15.07;94.62
12913;BME280;6524;51.368;11.984;2022-10-23T07:47:24;100402.75;;;15.18;93.45
12913;BME280;6524;51.368;11.984;2022-10-23T07:52:24;100390.91;;;15.60;91.72
12913;BME280;6524;51.368;11.984;2022-10-23T07:57:24;100381.34;;;15.59;91.88
12913;BME280;6524;51.368;11.984;2022-10-23T08:02:25;100379.78;;;15.39;92.01
12913;BME280;6524;51.368;11.984;2022-10-23T08:07:25;100390.56;;;15.17;93.89
12913;BME280;6524;51.368;11.984;2022-10-23T08:12:25;100376.19;;;15.24;93.83
12913;BME280;6524;51.368;11.984;2022-10-23T08:17:25;100371.78;;;15.07;94.23
12913;BME280;6524;51.368;11.984;2022-10-23T08:22:27;100366.09;;;15.65;91.54
12913;BME280;6524;51.368;11.984;2022-10-23T08:27:32;100377.69;;;15.94;90.30
12913;BME280;6524;51.368;11.984;2022-10-23T08:32:32;100376.50;;;15.84;90.51
12913;BME280;6524;51.368;11.984;2022-10-23T08:37:33;100362.41;;;16.33;88.67
12913;BME280;6524;51.368;11.984;2022-10-23T08:42:35;100369.63;;;17.20;85.25
12913;BME280;6524;51.368;11.984;2022-10-23T08:47:40;100365.63;;;18.13;80.56
12913;BME280;6524;51.368;11.984;2022-10-23T08:52:47;100374.09;;;20.61;71.27
12913;BME280;6524;51.368;11.984;2022-10-23T08:58:06;100384.13;;;23.64;60.18
12913;BME280;6524;51.368;11.984;2022-10-23T09:03:10;100381.75;;;25.75;54.05
12913;BME280;6524;51.368;11.984;2022-10-23T09:08:33;100393.09;;;27.04;49.84
12913;BME280;6524;51.368;11.984;2022-10-23T09:18:59;100380.09;;;26.19;52.29
12913;BME280;6524;51.368;11.984;2022-10-23T09:23:59;100383.09;;;26.16;53.18
12913;BME280;6524;51.368;11.984;2022-10-23T09:29:22;100377.03;;;26.60;51.98
12913;BME280;6524;51.368;11.984;2022-10-23T09:34:25;100377.63;;;26.71;51.96
12913;BME280;6524;51.368;11.984;2022-10-23T09:39:31;100374.75;;;26.65;51.90
12913;BME280;6524;51.368;11.984;2022-10-23T09:44:32;100367.88;;;28.01;49.60
12913;BME280;6524;51.368;11.984;2022-10-23T09:49:33;100368.50;;;28.62;47.46
12913;BME280;6524;51.368;11.984;2022-10-23T09:54:43;100364.09;;;27.17;51.92
12913;BME280;6524;51.368;11.984;2022-10-23T09:59:50;100351.03;;;26.70;50.04
12913;BME280;6524;51.368;11.984;2022-10-23T10:04:51;100337.53;;;25.25;55.13
12913;BME280;6524;51.368;11.984;2022-10-23T10:09:52;100326.41;;;24.24;58.18
12913;BME280;6524;51.368;11.984;2022-10-23T10:15:16;100330.59;;;24.17;58.45
12913;BME280;6524;51.368;11.984;2022-10-23T10:21:12;100330.91;;;25.67;53.94
12913;BME280;6524;51.368;11.984;2022-10-23T10:31:45;100308.63;;;29.02;45.47
12913;BME280;6524;51.368;11.984;2022-10-23T10:36:55;100314.22;;;26.64;49.72
12913;BME280;6524;51.368;11.984;2022-10-23T11:03:48;100277.97;;;25.80;51.66
12913;BME280;6524;51.368;11.984;2022-10-23T11:08:51;100271.59;;;25.91;53.71
12913;BME280;6524;51.368;11.984;2022-10-23T11:13:52;100278.53;;;26.55;52.55
12913;BME280;6524;51.368;11.984;2022-10-23T11:19:06;100275.97;;;26.97;50.59
12913;BME280;6524;51.368;11.984;2022-10-23T11:40:12;100229.91;;;26.16;50.71
12913;BME280;6524;51.368;11.984;2022-10-23T11:55:31;100201.41;;;25.25;55.33
12913;BME280;6524;51.368;11.984;2022-10-23T12:00:34;100191.56;;;25.35;53.25
12913;BME280;6524;51.368;11.984;2022-10-23T12:05:38;100182.03;;;25.69;52.73
12913;BME280;6524;51.368;11.984;2022-10-23T12:10:47;100180.84;;;24.23;56.07
12913;BME280;6524;51.368;11.984;2022-10-23T12:15:55;100168.97;;;23.69;58.11
12913;BME280;6524;51.368;11.984;2022-10-23T12:20:57;100162.50;;;23.82;58.21
12913;BME280;6524;51.368;11.984;2022-10-23T12:42:16;100127.50;;;24.43;55.64
12913;BME280;6524;51.368;11.984;2022-10-23T12:47:19;100134.00;;;24.11;56.79
12913;BME280;6524;51.368;11.984;2022-10-23T12:52:21;100135.44;;;23.67;57.92
12913;BME280;6524;51.368;11.984;2022-10-23T12:57:26;100127.13;;;23.21;59.69
12913;BME280;6524;51.368;11.984;2022-10-23T13:02:29;100115.13;;;22.86;59.06
12913;BME280;6524;51.368;11.984;2022-10-23T13:07:36;100106.16;;;22.16;62.32
12913;BME280;6524;51.368;11.984;2022-10-23T13:12:42;100106.66;;;22.10;62.26
12913;BME280;6524;51.368;11.984;2022-10-23T13:17:59;100095.84;;;22.23;62.24
12913;BME280;6524;51.368;11.984;2022-10-23T13:23:29;100103.84;;;22.12;63.35
12913;BME280;6524;51.368;11.984;2022-10-23T13:28:43;100095.19;;;22.10;63.77
12913;BME280;6524;51.368;11.984;2022-10-23T13:33:46;100089.56;;;22.03;64.54
12913;BME280;6524;51.368;11.984;2022-10-23T13:44:12;100081.72;;;21.60;66.39
12913;BME280;6524;51.368;11.984;2022-10-23T13:49:13;100077.94;;;21.41;67.07
12913;BME280;6524;51.368;11.984;2022-10-23T13:54:24;100074.13;;;21.23;67.77
12913;BME280;6524;51.368;11.984;2022-10-23T13:59:24;100059.72;;;21.05;69.17
12913;BME280;6524;51.368;11.984;2022-10-23T14:04:25;100051.53;;;20.96;70.42
12913;BME280;6524;51.368;11.984;2022-10-23T14:09:25;100048.69;;;20.77;71.66
12913;BME280;6524;51.368;11.984;2022-10-23T14:14:25;100048.56;;;20.78;71.53
12913;BME280;6524;51.368;11.984;2022-10-23T14:19:26;100024.00;;;20.76;71.83
12913;BME280;6524;51.368;11.984;2022-10-23T14:24:26;100027.53;;;20.66;71.83
12913;BME280;6524;51.368;11.984;2022-10-23T14:29:26;100010.19;;;20.39;72.73
12913;BME280;6524;51.368;11.984;2022-10-23T14:34:27;100000.06;;;20.33;73.40
12913;BME280;6524;51.368;11.984;2022-10-23T14:39:27;100004.88;;;20.39;73.02
12913;BME280;6524;51.368;11.984;2022-10-23T14:44:28;100012.63;;;20.53;72.87
12913;BME280;6524;51.368;11.984;2022-10-23T14:49:28;100010.91;;;20.52;73.21
12913;BME280;6524;51.368;11.984;2022-10-23T14:54:28;100009.47;;;20.60;73.40
12913;BME280;6524;51.368;11.984;2022-10-23T14:59:31;100008.03;;;20.44;74.26
12913;BME280;6524;51.368;11.984;2022-10-23T15:04:32;100004.03;;;20.39;74.75
12913;BME280;6524;51.368;11.984;2022-10-23T15:09:32;99993.59;;;20.26;75.42
12913;BME280;6524;51.368;11.984;2022-10-23T15:14:35;99995.00;;;20.30;74.17
12913;BME280;6524;51.368;11.984;2022-10-23T15:19:35;99980.09;;;20.18;74.39
12913;BME280;6524;51.368;11.984;2022-10-23T15:24:36;99967.59;;;20.20;74.27
12913;BME280;6524;51.368;11.984;2022-10-23T15:29:36;99977.81;;;20.02;75.81
12913;BME280;6524;51.368;11.984;2022-10-23T15:34:37;99959.19;;;19.92;76.50
12913;BME280;6524;51.368;11.984;2022-10-23T15:39:38;99959.66;;;19.86;77.67
12913;BME280;6524;51.368;11.984;2022-10-23T15:44:39;99967.09;;;19.70;78.70
12913;BME280;6524;51.368;11.984;2022-10-23T15:49:40;99946.34;;;19.52;79.94
12913;BME280;6524;51.368;11.984;2022-10-23T15:54:41;99935.22;;;19.60;80.07
12913;BME280;6524;51.368;11.984;2022-10-23T15:59:41;99929.88;;;19.49;80.96
12913;BME280;6524;51.368;11.984;2022-10-23T16:04:41;99913.28;;;19.35;81.74
12913;BME280;6524;51.368;11.984;2022-10-23T16:09:42;99890.56;;;19.22;82.96
12913;BME280;6524;51.368;11.984;2022-10-23T16:14:42;99885.66;;;19.28;82.58
12913;BME280;6524;51.368;11.984;2022-10-23T16:19:43;99897.66;;;19.32;81.76
12913;BME280;6524;51.368;11.984;2022-10-23T16:24:43;99879.97;;;19.10;82.61
12913;BME280;6524;51.368;11.984;2022-10-23T16:29:43;99872.72;;;19.01;82.69
12913;BME280;6524;51.368;11.984;2022-10-23T16:34:45;99873.19;;;18.95;82.52
12913;BME280;6524;51.368;11.984;2022-10-23T16:39:45;99854.00;;;18.93;82.08
12913;BME280;6524;51.368;11.984;2022-10-23T16:44:45;99857.66;;;18.79;81.45
12913;BME280;6524;51.368;11.984;2022-10-23T16:49:46;99844.81;;;18.75;81.84
12913;BME280;6524;51.368;11.984;2022-10-23T16:54:46;99857.47;;;18.69;80.72
12913;BME280;6524;51.368;11.984;2022-10-23T16:59:46;99855.28;;;18.63;80.32
12913;BME280;6524;51.368;11.984;2022-10-23T17:04:46;99864.13;;;18.51;80.05
12913;BME280;6524;51.368;11.984;2022-10-23T17:09:47;99855.72;;;18.46;80.00
12913;BME280;6524;51.368;11.984;2022-10-23T17:14:50;99845.88;;;18.48;79.68
12913;BME280;6524;51.368;11.984;2022-10-23T17:19:50;99841.25;;;18.39;79.08
12913;BME280;6524;51.368;11.984;2022-10-23T17:24:51;99840.09;;;18.43;78.45
12913;BME280;6524;51.368;11.984;2022-10-23T17:29:51;99844.28;;;18.45;78.09
12913;BME280;6524;51.368;11.984;2022-10-23T17:34:52;99855.25;;;18.52;77.31
12913;BME280;6524;51.368;11.984;2022-10-23T17:39:52;99841.31;;;18.50;77.35
12913;BME280;6524;51.368;11.984;2022-10-23T17:44:52;99833.19;;;18.53;76.96
12913;BME280;6524;51.368;11.984;2022-10-23T17:49:53;99816.97;;;18.46;76.95
12913;BME280;6524;51.368;11.984;2022-10-23T17:54:53;99825.72;;;18.47;76.63
12913;BME280;6524;51.368;11.984;2022-10-23T17:59:53;99815.94;;;18.36;76.45
12913;BME280;6524;51.368;11.984;2022-10-23T18:04:54;99800.91;;;18.25;77.07
12913;BME280;6524;51.368;11.984;2022-10-23T18:09:54;99781.47;;;18.26;76.57
12913;BME280;6524;51.368;11.984;2022-10-23T18:14:54;99778.19;;;18.12;77.90
12913;BME280;6524;51.368;11.984;2022-10-23T18:19:55;99782.16;;;18.17;77.20
12913;BME280;6524;51.368;11.984;2022-10-23T18:24:55;99785.28;;;18.22;76.71
12913;BME280;6524;51.368;11.984;2022-10-23T18:29:56;99790.28;;;18.38;76.15
12913;BME280;6524;51.368;11.984;2022-10-23T18:34:56;99781.00;;;18.33;75.04
12913;BME280;6524;51.368;11.984;2022-10-23T18:39:57;99780.47;;;18.52;74.84
12913;BME280;6524;51.368;11.984;2022-10-23T18:44:57;99784.63;;;18.32;74.68
12913;BME280;6524;51.368;11.984;2022-10-23T18:49:58;99775.84;;;18.66;73.00
12913;BME280;6524;51.368;11.984;2022-10-23T18:54:58;99781.63;;;18.71;72.92
12913;BME280;6524;51.368;11.984;2022-10-23T18:59:59;99782.56;;;18.70;72.41
12913;BME280;6524;51.368;11.984;2022-10-23T19:05:00;99770.16;;;18.84;72.09
12913;BME280;6524;51.368;11.984;2022-10-23T19:10:01;99760.75;;;18.80;72.64
12913;BME280;6524;51.368;11.984;2022-10-23T19:15:02;99735.19;;;18.80;72.55
12913;BME280;6524;51.368;11.984;2022-10-23T19:20:10;99721.88;;;18.82;72.59
12913;BME280;6524;51.368;11.984;2022-10-23T19:25:26;99702.63;;;18.68;73.13
12913;BME280;6524;51.368;11.984;2022-10-23T19:30:28;99685.00;;;18.69;73.92
12913;BME280;6524;51.368;11.984;2022-10-23T19:35:29;99695.53;;;18.58;74.17
12913;BME280;6524;51.368;11.984;2022-10-23T19:40:29;99689.41;;;18.57;74.33
12913;BME280;6524;51.368;11.984;2022-10-23T19:45:30;99691.59;;;18.52;75.41
12913;BME280;6524;51.368;11.984;2022-10-23T19:50:30;99701.41;;;18.50;76.76
12913;BME280;6524;51.368;11.984;2022-10-23T19:55:30;99696.81;;;18.41;76.16
12913;BME280;6524;51.368;11.984;2022-10-23T20:00:31;99728.38;;;18.42;77.19
12913;BME280;6524;51.368;11.984;2022-10-23T20:05:31;99752.50;;;18.38;76.41
12913;BME280;6524;51.368;11.984;2022-10-23T20:10:31;99768.56;;;18.35;77.77
12913;BME280;6524;51.368;11.984;2022-10-23T20:15:35;99769.47;;;18.22;81.60
12913;BME280;6524;51.368;11.984;2022-10-23T20:20:40;99775.03;;;18.31;81.43
12913;BME280;6524;51.368;11.984;2022-10-23T20:25:40;99779.19;;;18.22;84.33
12913;BME280;6524;51.368;11.984;2022-10-23T20:30:41;99800.56;;;18.06;87.49
12913;BME280;6524;51.368;11.984;2022-10-23T20:35:43;99808.81;;;18.01;90.24
12913;BME280;6524;51.368;11.984;2022-10-23T20:40:43;99833.78;;;17.72;92.05
12913;BME280;6524;51.368;11.984;2022-10-23T20:45:44;99881.25;;;17.59;90.00
12913;BME280;6524;51.368;11.984;2022-10-23T20:50:45;99916.16;;;17.50;91.44
12913;BME280;6524;51.368;11.984;2022-10-23T20:55:45;99956.91;;;17.06;98.06
12913;BME280;6524;51.368;11.984;2022-10-23T21:00:45;99935.81;;;17.06;98.72
12913;BME280;6524;51.368;11.984;2022-10-23T21:05:46;99928.19;;;16.88;100.00
12913;BME280;6524;51.368;11.984;2022-10-23T21:10:46;99909.88;;;16.87;100.00
12913;BME280;6524;51.368;11.984;2022-10-23T21:15:46;99917.44;;;16.92;100.00
12913;BME280;6524;51.368;11.984;2022-10-23T21:20:47;99913.75;;;16.81;100.00
12913;BME280;6524;51.368;11.984;2022-10-23T21:25:47;99922.41;;;16.69;100.00
12913;BME280;6524;51.368;11.984;2022-10-23T21:30:48;99923.91;;;16.73;100.00
12913;BME280;6524;51.368;11.984;2022-10-23T21:35:48;99909.44;;;16.80;100.00
12913;BME280;6524;51.368;11.984;2022-10-23T21:40:48;99923.31;;;16.82;100.00
12913;BME280;6524;51.368;11.984;2022-10-23T21:45:49;99920.16;;;16.77;100.00
12913;BME280;6524;51.368;11.984;2022-10-23T21:50:56;99906.59;;;16.83;100.00
12913;BME280;6524;51.368;11.984;2022-10-23T21:56:01;99886.06;;;16.88;100.00
12913;BME280;6524;51.368;11.984;2022-10-23T22:01:03;99825.50;;;16.88;100.00
12913;BME280;6524;51.368;11.984;2022-10-23T22:06:04;99807.88;;;16.76;100.00
12913;BME280;6524;51.368;11.984;2022-10-23T22:11:04;99856.66;;;16.82;100.00
12913;BME280;6524;51.368;11.984;2022-10-23T22:16:05;99866.84;;;16.74;100.00
12913;BME280;6524;51.368;11.984;2022-10-23T22:21:08;99869.19;;;16.78;100.00
12913;BME280;6524;51.368;11.984;2022-10-23T22:26:20;99865.34;;;16.70;100.00
12913;BME280;6524;51.368;11.984;2022-10-23T22:31:24;99871.34;;;16.72;100.00
12913;BME280;6524;51.368;11.984;2022-10-23T22:36:25;99870.84;;;16.39;100.00
12913;BME280;6524;51.368;11.984;2022-10-23T22:41:26;99848.66;;;16.43;100.00
12913;BME280;6524;51.368;11.984;2022-10-23T22:46:27;99849.03;;;16.37;100.00
12913;BME280;6524;51.368;11.984;2022-10-23T22:51:28;99855.53;;;16.32;100.00
12913;BME280;6524;51.368;11.984;2022-10-23T22:56:29;99847.97;;;16.27;100.00
12913;BME280;6524;51.368;11.984;2022-10-23T23:01:35;99843.63;;;16.26;100.00
12913;BME280;6524;51.368;11.984;2022-10-23T23:06:36;99847.75;;;16.30;100.00
12913;BME280;6524;51.368;11.984;2022-10-23T23:11:37;99852.91;;;16.32;100.00
12913;BME280;6524;51.368;11.984;2022-10-23T23:16:37;99855.97;;;16.38;100.00
12913;BME280;6524;51.368;11.984;2022-10-23T23:21:37;99850.97;;;16.48;100.00
12913;BME280;6524;51.368;11.984;2022-10-23T23:26:38;99855.97;;;16.38;100.00
12913;BME280;6524;51.368;11.984;2022-10-23T23:31:38;99847.44;;;16.35;100.00
12913;BME280;6524;51.368;11.984;2022-10-23T23:36:39;99861.50;;;16.21;100.00
12913;BME280;6524;51.368;11.984;2022-10-23T23:41:40;99853.16;;;16.14;100.00
12913;BME280;6524;51.368;11.984;2022-10-23T23:46:40;99844.97;;;16.19;100.00
12913;BME280;6524;51.368;11.984;2022-10-23T23:51:40;99848.94;;;16.12;100.00
12913;BME280;6524;51.368;11.984;2022-10-23T23:56:41;99829.97;;;16.07;100.00
